Latest Weather Observations for Murrurundi Gap

IDN60801

Issued at 2:32 pm EDT Wednesday 22 February 2017 (issued every 30 minutes, with the page automatically refreshed every 10 minutes)

About weather observations | Map of weather stations | Latest weather observations for NSW | Other Formats
Station Details ID: 061392 Name: MURRURUNDI GAP AWS Lat: -31.74 Lon: 150.79 Height: 729.4 m
Data from the previous 72 hours. | See also: Recent months at Murrurundi Gap
Date/Time
EDT
Temp
°C
App
Temp
°C
Dew
Point
°C
Rel
Hum
%
Delta-T
°C
Wind Press
QNH
hPa
Press
MSL
hPa
Rain since
9am
mm
Dir  Spd
km/h
Gust
km/h
Spd
kts
Gust
kts
22/02:30pm 28.3 27.0 9.1 30 10.9 ENE 6 11 3 6 1020.9 1017.1 0.0
22/02:00pm 29.1 27.4 11.2 33 10.6 E 11 19 6 10 1021.1 1017.3 0.0
22/01:30pm 27.4 25.2 9.3 32 10.3 SE 11 24 6 13 1021.5 1017.7 0.0
22/01:00pm 27.8 26.2 10.1 33 10.2 NE 9 13 5 7 1022.0 1018.2 0.0
22/12:30pm 25.9 23.3 9.3 35 9.4 NW 13 20 7 11 1022.4 1018.6 0.0
22/12:00pm 25.8 24.1 8.3 33 9.7 NNW 7 13 4 7 1022.7 1018.9 0.0
22/11:30am 25.6 24.5 12.1 43 8.0 NW 9 19 5 10 1022.9 1019.1 0.0
22/11:00am 24.8 23.2 11.7 44 7.7 NW 11 20 6 11 1023.2 1019.4 0.0
22/10:30am 23.4 23.5 14.4 57 5.5 ENE 7 13 4 7 1023.3 1019.5 0.0
22/10:00am 22.0 21.9 14.9 64 4.3 ESE 9 13 5 7 1023.4 1019.6 0.0
22/09:30am 20.3 19.2 14.4 69 3.5 ESE 13 17 7 9 1023.3 1019.5 0.0
22/09:00am 19.0 17.6 14.5 75 2.7 ESE 15 19 8 10 1023.2 1019.4 0.0
22/08:30am 19.0 18.1 14.9 77 2.5 ESE 13 17 7 9 1022.8 1019.0 0.0
22/08:00am 17.3 16.1 14.0 81 1.9 ESE 13 15 7 8 1022.5 1018.7 0.0
22/07:30am 16.5 15.5 14.5 88 1.2 SE 13 17 7 9 1022.2 1018.4 0.0
22/07:00am 15.8 14.7 14.3 91 0.9 SE 13 17 7 9 1021.9 1018.1 0.0
22/06:30am 14.9 12.8 13.6 92 0.8 ESE 17 17 9 9 1021.8 1018.0 0.0
22/06:00am 15.5 13.9 13.9 90 0.9 SE 15 17 8 9 1021.4 1017.6 0.0
22/05:30am 15.5 13.5 13.9 90 0.9 SE 17 17 9 9 1021.2 1017.4 0.0
22/05:00am 16.0 14.4 14.0 88 1.2 SE 15 17 8 9 1021.0 1017.2 0.0
22/04:30am 16.0 14.0 14.0 88 1.2 ESE 17 17 9 9 1020.9 1017.1 0.0
22/04:00am 16.0 14.0 14.0 88 1.2 ESE 17 17 9 9 1020.8 1017.0 0.0
22/03:30am 15.9 14.0 14.3 90 0.9 ESE 17 19 9 10 1020.8 1017.0 0.0
22/03:00am 15.9 13.6 14.1 89 1.1 ESE 19 20 10 11 1020.7 1016.9 0.0
22/02:30am 16.7 14.2 14.2 85 1.5 SE 20 24 11 13 1020.7 1016.9 0.0
22/02:00am 16.7 14.3 14.3 86 1.4 SE 20 22 11 12 1020.9 1017.1 0.0
22/01:30am 16.6 14.1 14.2 86 1.4 ESE 20 22 11 12 1020.9 1017.1 0.0
22/01:00am 17.4 15.0 14.5 83 1.7 SE 20 24 11 13 1020.9 1017.1 0.0
22/12:30am 17.7 15.6 14.6 82 1.9 ESE 19 20 10 11 1021.0 1017.2 0.0
22/12:00am 17.5 15.6 14.2 81 1.9 ESE 17 24 9 13 1021.3 1017.5 0.0
 
Date/Time
EDT
Temp
°C
App
Temp
°C
Dew
Point
°C
Rel
Hum
%
Delta-T
°C
Wind Press
QNH
hPa
Press
MSL
hPa
Rain since
9am
mm
Dir  Spd
km/h
Gust
km/h
Spd
kts
Gust
kts
21/11:30pm 18.4 15.2 14.3 77 2.4 SE 24 30 13 16 1021.2 1017.4 0.0
21/11:00pm 18.7 14.6 13.8 73 2.9 SE 28 32 15 17 1021.0 1017.2 0.0
21/10:30pm 19.7 15.1 13.6 68 3.6 SE 30 37 16 20 1021.3 1017.5 0.0
21/10:00pm 20.1 16.3 13.6 66 3.8 SSE 26 33 14 18 1021.3 1017.5 0.0
21/09:30pm 20.3 16.8 13.3 64 4.1 SSE 24 32 13 17 1021.0 1017.2 0.0
21/09:00pm 21.1 17.5 13.0 60 4.8 SE 24 33 13 18 1020.9 1017.1 0.0
21/08:30pm 22.0 18.8 12.0 53 5.8 SSE 20 28 11 15 1020.5 1016.6 0.0
21/08:00pm 22.7 18.9 9.1 42 7.5 SSE 19 26 10 14 1019.9 1016.1 0.0
21/07:30pm 23.7 19.8 3.6 27 10.2 SE 13 19 7 10 1019.6 1015.8 0.0
21/07:00pm 24.9 20.6 3.0 24 11.0 SSE 15 19 8 10 1019.3 1015.5 0.0
21/06:30pm 26.3 22.8 3.5 23 11.7 S 11 13 6 7 1019.0 1015.1 0.0
21/06:00pm 26.4 21.7 3.0 22 11.9 SE 17 24 9 13 1018.8 1014.9 0.0
21/05:30pm 27.8 24.4 4.2 22 12.4 S 11 20 6 11 1018.7 1014.8 0.0
21/05:00pm 27.5 24.1 3.9 22 12.3 SSE 11 17 6 9 1018.5 1014.7 0.0
21/04:30pm 27.5 23.7 1.8 19 12.9 SE 11 17 6 9 1018.8 1014.9 0.0
21/04:00pm 27.3 24.1 3.1 21 12.4 SSE 9 17 5 9 1018.7 1014.8 0.0
21/03:30pm 28.1 25.3 2.3 19 13.1 ENE 6 11 3 6 1018.7 1014.8 0.0
21/03:00pm 27.0 22.8 1.4 19 12.7 W 13 19 7 10 1019.0 1015.1 0.0
21/02:30pm 26.3 22.2 2.3 21 12.1 NW 13 20 7 11 1019.5 1015.7 0.0
21/02:00pm 25.7 20.9 2.4 22 11.7 NNE 17 26 9 14 1019.6 1015.8 0.0
21/01:30pm 25.4 22.7 2.8 23 11.4 SSE 6 11 3 6 1020.0 1016.2 0.0
21/01:00pm 25.1 20.8 3.1 24 11.1 NNW 15 22 8 12 1020.5 1016.6 0.0
21/12:30pm 24.2 18.9 1.8 23 11.0 N 19 26 10 14 1020.7 1016.9 0.0
21/12:00pm 24.4 20.7 4.2 27 10.3 NW 13 20 7 11 1021.0 1017.2 0.0
21/11:30am 23.3 20.0 2.7 26 10.2 E 9 13 5 7 1021.4 1017.6 0.0
21/11:00am 22.2 18.1 2.3 27 9.7 ESE 13 19 7 10 1021.5 1017.7 0.0
21/10:30am 21.2 17.2 3.0 30 8.9 ESE 13 19 7 10 1021.4 1017.6 0.0
21/10:00am 19.6 15.0 1.6 30 8.5 ESE 15 19 8 10 1021.4 1017.6 0.0
21/09:30am 18.4 13.8 1.4 32 7.9 ESE 15 17 8 9 1021.1 1017.3 0.0
21/09:00am 17.9 13.5 2.6 36 7.3 ESE 15 17 8 9 1020.9 1017.1 0.0
21/08:30am 16.9 12.6 3.2 40 6.6 ESE 15 19 8 10 1020.3 1016.4 0.0
21/08:00am 15.8 11.6 3.6 44 5.8 SE 15 17 8 9 1019.9 1016.1 0.0
21/07:30am 14.3 9.3 1.6 42 5.8 ESE 17 20 9 11 1019.5 1015.7 0.0
21/07:00am 13.2 8.2 1.5 45 5.2 ESE 17 20 9 11 1019.1 1015.2 0.0
21/06:30am 12.4 7.4 1.1 46 5.0 ESE 17 20 9 11 1018.9 1015.0 0.0
21/06:00am 12.7 7.4 1.7 47 4.9 ESE 19 20 10 11 1018.9 1015.0 0.0
21/05:30am 12.5 7.5 1.2 46 5.0 ESE 17 20 9 11 1018.3 1014.5 0.0
21/05:00am 12.2 7.1 0.6 45 5.0 SE 17 20 9 11 1018.0 1014.1 0.0
21/04:30am 13.0 7.4 0.1 41 5.6 SE 19 22 10 12 1017.9 1014.0 0.0
21/04:00am 14.3 9.1 0.2 38 6.2 SE 17 20 9 11 1017.7 1013.8 0.0
21/03:30am 14.1 8.8 -0.4 37 6.3 SE 17 19 9 10 1017.5 1013.6 0.0
21/03:00am 15.7 10.8 -0.5 33 7.1 SE 15 17 8 9 1017.8 1013.9 0.0
21/02:30am 15.5 10.6 -0.3 34 6.9 ESE 15 19 8 10 1017.9 1014.0 0.0
21/02:00am 15.2 9.8 1.0 38 6.4 SE 19 22 10 12 1017.9 1014.0 0.0
21/01:30am 15.0 9.9 0.8 38 6.4 SE 17 20 9 11 1018.0 1014.1 0.0
21/01:00am 15.4 9.9 0.4 36 6.7 SE 19 20 10 11 1018.0 1014.1 0.0
21/12:30am 16.6 10.9 -0.6 31 7.6 ESE 19 22 10 12 1018.0 1014.1 0.0
21/12:00am 16.8 11.5 -0.9 30 7.8 SE 17 20 9 11 1018.0 1014.1 0.0
 
Date/Time
EDT
Temp
°C
App
Temp
°C
Dew
Point
°C
Rel
Hum
%
Delta-T
°C
Wind Press
QNH
hPa
Press
MSL
hPa
Rain since
9am
mm
Dir  Spd
km/h
Gust
km/h
Spd
kts
Gust
kts
20/11:30pm 17.4 12.1 -0.8 29 8.1 ESE 17 20 9 11 1017.8 1013.9 0.0
20/11:00pm 17.5 13.0 -0.2 30 7.9 ESE 13 17 7 9 1017.7 1013.8 0.0
20/10:30pm 18.1 13.7 0.3 30 8.1 ESE 13 17 7 9 1017.6 1013.7 0.0
20/10:00pm 18.1 13.8 1.2 32 7.8 ESE 13 15 7 8 1017.5 1013.6 0.0
20/09:30pm 19.0 14.8 1.5 31 8.2 ESE 13 17 7 9 1017.1 1013.3 0.0
20/09:00pm 19.4 15.2 1.4 30 8.5 SE 13 15 7 8 1016.8 1013.0 0.0
20/08:30pm 20.0 16.5 1.4 29 8.8 E 9 13 5 7 1016.3 1012.4 0.0
20/08:00pm 20.3 17.4 2.6 31 8.6 ESE 7 13 4 7 1015.8 1011.9 0.0
20/07:30pm 22.7 20.4 2.8 27 9.8 WNW 4 7 2 4 1015.1 1011.2 0.0
20/07:00pm 23.0 19.4 3.0 27 10.0 NW 11 13 6 7 1014.6 1010.7 0.0
20/06:30pm 23.5 19.4 2.4 25 10.4 NW 13 19 7 10 1014.3 1010.3 0.0
20/06:00pm 23.6 19.1 2.4 25 10.5 WNW 15 22 8 12 1013.9 1010.0 0.0
20/05:30pm 23.5 18.7 2.4 25 10.4 WNW 17 22 9 12 1013.6 1009.7 0.0
20/05:00pm 23.7 19.7 3.1 26 10.3 W 13 20 7 11 1013.6 1009.7 0.0
20/04:30pm 23.0 18.1 1.9 25 10.3 NNW 17 24 9 13 1013.5 1009.6 0.0
20/04:00pm 23.7 19.0 3.1 26 10.3 WNW 17 26 9 14 1013.4 1009.5 0.0
20/03:30pm 23.3 17.8 1.6 24 10.5 WNW 20 30 11 16 1013.4 1009.5 0.0
20/03:00pm 22.8 16.8 3.4 28 9.7 WNW 24 32 13 17 1013.6 1009.7 0.0
20/02:30pm 21.9 15.8 2.6 28 9.5 NW 24 39 13 21 1013.9 1010.0 0.0
20/02:00pm 21.1 14.9 2.4 29 9.1 WNW 24 37 13 20 1014.1 1010.2 0.0
20/01:30pm 20.7 15.1 3.4 32 8.5 NW 22 35 12 19 1014.1 1010.2 0.0
20/01:00pm 20.2 14.6 3.4 33 8.3 NW 22 30 12 16 1014.5 1010.6 0.0
20/12:30pm 19.3 13.6 3.1 34 7.9 NW 22 32 12 17 1014.9 1011.0 0.0
20/12:00pm 19.7 14.8 4.2 36 7.7 NW 19 26 10 14 1014.9 1011.0 0.0
20/11:30am 18.8 13.5 3.0 35 7.6 WNW 20 30 11 16 1015.2 1011.3 0.0
20/11:00am 17.8 13.8 2.9 37 7.1 WNW 13 26 7 14 1015.3 1011.4 0.0
20/10:30am 17.6 13.3 3.5 39 6.8 W 15 20 8 11 1015.2 1011.3 0.0
20/10:00am 16.5 12.5 2.9 40 6.4 WNW 13 19 7 10 1015.3 1011.4 0.0
20/09:30am 15.8 12.0 1.9 39 6.4 NW 11 20 6 11 1015.2 1011.3 0.0
20/09:00am 15.5 11.1 2.7 42 6.0 W 15 19 8 10 1015.0 1011.1 0.2
20/08:30am 15.0 11.4 3.2 45 5.6 WNW 11 19 6 10 1014.7 1010.8 0.2
20/08:00am 14.5 12.9 2.4 44 5.6 CALM 0 0 0 0 1014.6 1010.7 0.2
20/07:30am 13.6 11.0 0.9 42 5.6 W 4 7 2 4 1014.3 1010.3 0.2
20/07:00am 12.8 10.8 -0.1 41 5.6 CALM 0 0 0 0 1014.1 1010.2 0.2
20/06:30am 13.4 11.1 0.1 40 5.8 W 2 7 1 4 1013.8 1009.9 0.2
20/06:00am 13.2 11.2 -0.1 40 5.8 CALM 0 0 0 0 1013.6 1009.7 0.2
20/05:30am 14.0 11.7 0.3 39 6.0 NW 2 6 1 3 1013.2 1009.3 0.2
20/05:00am 13.3 10.3 0.7 42 5.6 WNW 6 7 3 4 1012.6 1008.7 0.2
20/04:30am 13.3 9.8 1.0 43 5.5 NW 9 11 5 6 1012.3 1008.4 0.2
20/04:00am 13.9 10.3 0.5 40 5.9 NNW 9 13 5 7 1011.9 1008.0 0.2
20/03:30am 13.9 10.7 0.5 40 5.9 NW 7 11 4 6 1011.8 1007.8 0.2
20/03:00am 14.9 11.2 0.0 36 6.6 NNW 9 11 5 6 1011.8 1007.8 0.2
20/02:30am 15.6 12.3 -0.2 34 7.0 NNW 7 9 4 5 1011.8 1007.8 0.2
20/02:00am 15.7 12.0 -0.1 34 7.0 N 9 11 5 6 1011.9 1008.0 0.2
20/01:30am 16.2 12.9 -0.1 33 7.2 W 7 13 4 7 1011.5 1007.5 0.2
20/01:00am 17.0 13.5 1.0 34 7.3 NW 9 11 5 6 1011.4 1007.4 0.2
20/12:30am 17.8 14.2 0.5 31 7.9 NW 9 15 5 8 1011.2 1007.3 0.2
20/12:00am 17.9 15.0 4.5 41 6.6 NW 9 13 5 7 1011.1 1007.2 0.2
 
Date/Time
EDT
Temp
°C
App
Temp
°C
Dew
Point
°C
Rel
Hum
%
Delta-T
°C
Wind Press
QNH
hPa
Press
MSL
hPa
Rain since
9am
mm
Dir  Spd
km/h
Gust
km/h
Spd
kts
Gust
kts
19/11:30pm 18.1 16.9 9.7 58 4.6 NW 6 7 3 4 1011.0 1007.1 0.2
19/11:00pm 18.3 17.1 10.4 60 4.4 NW 7 9 4 5 1010.8 1006.9 0.2
19/10:30pm 18.9 16.9 11.5 62 4.2 NNW 13 19 7 10 1010.8 1006.9 0.2
19/10:00pm 19.5 16.5 12.0 62 4.3 NNW 19 20 10 11 1010.4 1006.4 0.2
19/09:30pm 20.1 17.1 11.8 59 4.8 NNW 19 26 10 14 1010.3 1006.3 0.2
19/09:00pm 20.4 17.1 11.6 57 5.1 NNW 20 30 11 16 1009.9 1005.9 0.2
19/08:30pm 20.8 18.7 11.2 54 5.5 NNW 13 17 7 9 1008.9 1004.9 0.2
19/08:00pm 20.9 18.6 10.4 51 5.9 WNW 13 17 7 9 1008.9 1004.9 0.2
19/07:30pm 21.5 18.5 10.6 50 6.2 NW 17 24 9 13 1009.0 1005.0 0.2
19/07:00pm 21.7 19.3 11.4 52 5.9 NNW 15 20 8 11 1008.9 1004.9 0.2
19/06:30pm 21.7 19.2 11.1 51 6.1 NNW 15 26 8 14 1008.3 1004.4 0.2
19/06:00pm 22.0 19.0 12.0 53 5.8 N 19 26 10 14 1008.1 1004.1 0.2
19/05:30pm 22.2 19.9 11.9 52 6.0 N 15 20 8 11 1007.8 1003.8 0.2
19/05:00pm 22.2 19.8 12.5 54 5.7 NNW 17 20 9 11 1007.9 1003.9 0.2
19/04:30pm 22.3 19.8 14.2 60 4.9 NW 20 26 11 14 1008.1 1004.1 0.2
19/04:00pm 22.5 18.8 13.8 58 5.2 NW 26 39 14 21 1008.6 1004.6 0.2
19/03:30pm 21.7 19.3 15.3 67 3.9 WNW 22 30 12 16 1008.7 1004.7 0.2
19/03:00pm 21.3 20.0 15.8 71 3.4 WNW 17 24 9 13 1009.3 1005.3 0.0

Other Formats:

Comma delimited format used in spreadsheet applications
http://www.bom.gov.au/fwo/IDN60801/IDN60801.95747.axf

JavaScript Object Notation format (JSON) in row-major order
http://www.bom.gov.au/fwo/IDN60801/IDN60801.95747.json